Terminal Aerodrome Forecast
Issued by NWS

Home | Current Version | Previous Version | Text Only | Print | Product List | Glossary Off
Versions: 1 2 3 4 5 6 7 8 9 10 11 12 13 14 15 16 17 18 19 20 21 22 23 24 25 26 27

588
FTUS43 KLOT 300257 AAA
TAFDPA
TAF AMD
KDPA 300257Z 3003/3024 20008KT P6SM FEW030
     FM300600 24006KT P6SM FEW250
     FM301600 24010G16KT P6SM SCT200
     FM301800 24013G21KT P6SM SCT025 BKN050
     FM302100 24014G23KT P6SM VCSH BKN025=

USA.gov is the U.S. government's official web portal to all federal, state and local government web resources and services.